sensor_id;sensor_type;location;lat;lon;timestamp;P1;durP1;ratioP1;P2;durP2;ratioP2
31906;SDS011;18455;50.858;13.662;2024-02-04T00:03:38;3.67;;;3.37;;
31906;SDS011;18455;50.858;13.662;2024-02-04T00:08:38;3.67;;;3.37;;
31906;SDS011;18455;50.858;13.662;2024-02-04T00:13:38;3.83;;;3.53;;
31906;SDS011;18455;50.858;13.662;2024-02-04T00:18:38;4.00;;;3.30;;
31906;SDS011;18455;50.858;13.662;2024-02-04T00:23:39;4.53;;;2.70;;
31906;SDS011;18455;50.858;13.662;2024-02-04T00:28:39;3.17;;;2.97;;
31906;SDS011;18455;50.858;13.662;2024-02-04T00:33:42;3.27;;;2.80;;
31906;SDS011;18455;50.858;13.662;2024-02-04T00:38:43;3.87;;;3.10;;
31906;SDS011;18455;50.858;13.662;2024-02-04T00:43:43;5.57;;;3.37;;
31906;SDS011;18455;50.858;13.662;2024-02-04T00:48:43;5.23;;;3.13;;
31906;SDS011;18455;50.858;13.662;2024-02-04T00:53:44;3.50;;;3.17;;
31906;SDS011;18455;50.858;13.662;2024-02-04T00:58:44;3.03;;;2.73;;
31906;SDS011;18455;50.858;13.662;2024-02-04T01:03:44;3.53;;;3.23;;
31906;SDS011;18455;50.858;13.662;2024-02-04T01:08:45;4.10;;;3.70;;
31906;SDS011;18455;50.858;13.662;2024-02-04T01:13:45;5.13;;;4.47;;
31906;SDS011;18455;50.858;13.662;2024-02-04T01:18:45;5.03;;;4.53;;
31906;SDS011;18455;50.858;13.662;2024-02-04T01:23:45;1.87;;;1.77;;
31906;SDS011;18455;50.858;13.662;2024-02-04T01:28:45;3.13;;;1.47;;
31906;SDS011;18455;50.858;13.662;2024-02-04T01:33:46;5.20;;;1.60;;
31906;SDS011;18455;50.858;13.662;2024-02-04T01:38:47;2.57;;;1.60;;
31906;SDS011;18455;50.858;13.662;2024-02-04T01:43:47;1.70;;;1.60;;
31906;SDS011;18455;50.858;13.662;2024-02-04T01:48:47;2.13;;;1.63;;
31906;SDS011;18455;50.858;13.662;2024-02-04T01:53:47;1.93;;;1.80;;
31906;SDS011;18455;50.858;13.662;2024-02-04T01:58:48;4.03;;;2.80;;
31906;SDS011;18455;50.858;13.662;2024-02-04T02:03:49;6.60;;;4.23;;
31906;SDS011;18455;50.858;13.662;2024-02-04T02:08:51;6.97;;;4.87;;
31906;SDS011;18455;50.858;13.662;2024-02-04T02:13:54;7.17;;;5.13;;
31906;SDS011;18455;50.858;13.662;2024-02-04T02:19:01;7.97;;;5.23;;
31906;SDS011;18455;50.858;13.662;2024-02-04T02:24:08;6.27;;;4.73;;
31906;SDS011;18455;50.858;13.662;2024-02-04T02:29:10;5.63;;;4.20;;
31906;SDS011;18455;50.858;13.662;2024-02-04T02:34:10;5.20;;;4.63;;
31906;SDS011;18455;50.858;13.662;2024-02-04T02:39:15;7.60;;;5.37;;
31906;SDS011;18455;50.858;13.662;2024-02-04T02:44:17;10.60;;;5.43;;
31906;SDS011;18455;50.858;13.662;2024-02-04T02:49:17;7.57;;;5.53;;
31906;SDS011;18455;50.858;13.662;2024-02-04T02:54:17;8.90;;;5.93;;
31906;SDS011;18455;50.858;13.662;2024-02-04T02:59:17;7.13;;;5.07;;
31906;SDS011;18455;50.858;13.662;2024-02-04T03:04:18;8.37;;;6.60;;
31906;SDS011;18455;50.858;13.662;2024-02-04T03:09:18;10.10;;;5.50;;
31906;SDS011;18455;50.858;13.662;2024-02-04T03:14:20;5.83;;;4.90;;
31906;SDS011;18455;50.858;13.662;2024-02-04T03:19:20;7.13;;;5.40;;
31906;SDS011;18455;50.858;13.662;2024-02-04T03:24:20;9.40;;;5.60;;
31906;SDS011;18455;50.858;13.662;2024-02-04T03:29:21;8.53;;;4.53;;
31906;SDS011;18455;50.858;13.662;2024-02-04T03:34:21;5.40;;;4.03;;
31906;SDS011;18455;50.858;13.662;2024-02-04T03:39:21;4.20;;;3.43;;
31906;SDS011;18455;50.858;13.662;2024-02-04T03:44:22;4.10;;;2.80;;
31906;SDS011;18455;50.858;13.662;2024-02-04T03:49:22;4.20;;;2.60;;
31906;SDS011;18455;50.858;13.662;2024-02-04T03:54:22;3.33;;;3.03;;
31906;SDS011;18455;50.858;13.662;2024-02-04T03:59:23;6.43;;;3.70;;
31906;SDS011;18455;50.858;13.662;2024-02-04T04:04:23;4.77;;;3.43;;
31906;SDS011;18455;50.858;13.662;2024-02-04T04:09:23;3.90;;;3.43;;
31906;SDS011;18455;50.858;13.662;2024-02-04T04:14:23;6.63;;;3.47;;
31906;SDS011;18455;50.858;13.662;2024-02-04T04:19:23;8.60;;;3.73;;
31906;SDS011;18455;50.858;13.662;2024-02-04T04:24:24;3.70;;;2.87;;
31906;SDS011;18455;50.858;13.662;2024-02-04T04:29:24;4.10;;;3.07;;
31906;SDS011;18455;50.858;13.662;2024-02-04T04:34:26;2.93;;;2.63;;
31906;SDS011;18455;50.858;13.662;2024-02-04T04:39:26;5.43;;;3.20;;
31906;SDS011;18455;50.858;13.662;2024-02-04T04:44:26;3.23;;;2.80;;
31906;SDS011;18455;50.858;13.662;2024-02-04T04:49:27;4.70;;;3.00;;
31906;SDS011;18455;50.858;13.662;2024-02-04T04:54:27;3.17;;;2.87;;
31906;SDS011;18455;50.858;13.662;2024-02-04T04:59:28;3.50;;;2.83;;
31906;SDS011;18455;50.858;13.662;2024-02-04T05:04:28;3.20;;;2.90;;
31906;SDS011;18455;50.858;13.662;2024-02-04T05:09:28;4.23;;;2.67;;
31906;SDS011;18455;50.858;13.662;2024-02-04T05:14:28;5.00;;;2.87;;
31906;SDS011;18455;50.858;13.662;2024-02-04T05:19:28;4.43;;;3.33;;
31906;SDS011;18455;50.858;13.662;2024-02-04T05:24:28;2.80;;;2.60;;
31906;SDS011;18455;50.858;13.662;2024-02-04T05:29:29;3.77;;;3.40;;
31906;SDS011;18455;50.858;13.662;2024-02-04T05:34:30;3.67;;;3.30;;
31906;SDS011;18455;50.858;13.662;2024-02-04T05:39:31;4.40;;;3.50;;
31906;SDS011;18455;50.858;13.662;2024-02-04T05:44:31;4.07;;;3.43;;
31906;SDS011;18455;50.858;13.662;2024-02-04T05:49:32;4.20;;;3.30;;
31906;SDS011;18455;50.858;13.662;2024-02-04T05:54:32;4.10;;;3.07;;
31906;SDS011;18455;50.858;13.662;2024-02-04T05:59:35;5.30;;;3.27;;
31906;SDS011;18455;50.858;13.662;2024-02-04T06:04:35;4.47;;;3.20;;
31906;SDS011;18455;50.858;13.662;2024-02-04T06:09:36;5.00;;;3.07;;
31906;SDS011;18455;50.858;13.662;2024-02-04T06:14:36;5.77;;;3.37;;
31906;SDS011;18455;50.858;13.662;2024-02-04T06:19:39;3.67;;;2.90;;
31906;SDS011;18455;50.858;13.662;2024-02-04T06:24:40;3.77;;;3.23;;
31906;SDS011;18455;50.858;13.662;2024-02-04T06:29:40;4.07;;;3.60;;
31906;SDS011;18455;50.858;13.662;2024-02-04T06:34:41;3.50;;;2.73;;
31906;SDS011;18455;50.858;13.662;2024-02-04T06:39:41;3.23;;;2.93;;
31906;SDS011;18455;50.858;13.662;2024-02-04T06:44:44;3.67;;;2.83;;
31906;SDS011;18455;50.858;13.662;2024-02-04T06:55:41;4.50;;;3.13;;
31906;SDS011;18455;50.858;13.662;2024-02-04T07:00:50;3.73;;;3.33;;
31906;SDS011;18455;50.858;13.662;2024-02-04T07:06:19;3.80;;;3.13;;
31906;SDS011;18455;50.858;13.662;2024-02-04T07:11:19;2.00;;;1.80;;
31906;SDS011;18455;50.858;13.662;2024-02-04T07:16:21;1.50;;;1.40;;
31906;SDS011;18455;50.858;13.662;2024-02-04T07:21:21;1.73;;;1.40;;
31906;SDS011;18455;50.858;13.662;2024-02-04T07:26:21;1.23;;;1.23;;
31906;SDS011;18455;50.858;13.662;2024-02-04T07:31:21;1.90;;;1.30;;
31906;SDS011;18455;50.858;13.662;2024-02-04T07:36:22;2.30;;;2.10;;
31906;SDS011;18455;50.858;13.662;2024-02-04T07:41:22;1.60;;;1.50;;
31906;SDS011;18455;50.858;13.662;2024-02-04T07:46:23;1.27;;;1.17;;
31906;SDS011;18455;50.858;13.662;2024-02-04T07:51:23;1.30;;;1.20;;
31906;SDS011;18455;50.858;13.662;2024-02-04T07:56:23;1.40;;;1.30;;
31906;SDS011;18455;50.858;13.662;2024-02-04T08:01:23;1.13;;;1.13;;
31906;SDS011;18455;50.858;13.662;2024-02-04T08:06:24;1.50;;;1.40;;
31906;SDS011;18455;50.858;13.662;2024-02-04T08:11:24;0.97;;;0.97;;
31906;SDS011;18455;50.858;13.662;2024-02-04T08:16:24;1.13;;;1.03;;
31906;SDS011;18455;50.858;13.662;2024-02-04T08:21:25;2.87;;;2.07;;
31906;SDS011;18455;50.858;13.662;2024-02-04T08:26:25;1.20;;;1.10;;
31906;SDS011;18455;50.858;13.662;2024-02-04T08:31:25;1.30;;;1.20;;
31906;SDS011;18455;50.858;13.662;2024-02-04T08:36:25;1.03;;;1.03;;
31906;SDS011;18455;50.858;13.662;2024-02-04T08:41:25;1.10;;;1.10;;
31906;SDS011;18455;50.858;13.662;2024-02-04T08:46:26;1.03;;;1.03;;
31906;SDS011;18455;50.858;13.662;2024-02-04T08:51:26;1.40;;;1.30;;
31906;SDS011;18455;50.858;13.662;2024-02-04T08:56:26;1.53;;;1.43;;
31906;SDS011;18455;50.858;13.662;2024-02-04T09:01:26;1.87;;;1.37;;
31906;SDS011;18455;50.858;13.662;2024-02-04T09:06:26;1.20;;;1.10;;
31906;SDS011;18455;50.858;13.662;2024-02-04T09:11:27;4.97;;;4.10;;
31906;SDS011;18455;50.858;13.662;2024-02-04T09:16:27;2.27;;;2.07;;
31906;SDS011;18455;50.858;13.662;2024-02-04T09:21:28;4.40;;;2.83;;
31906;SDS011;18455;50.858;13.662;2024-02-04T09:26:28;2.30;;;1.20;;
31906;SDS011;18455;50.858;13.662;2024-02-04T09:31:28;2.00;;;1.80;;
31906;SDS011;18455;50.858;13.662;2024-02-04T09:36:28;1.37;;;1.27;;
31906;SDS011;18455;50.858;13.662;2024-02-04T09:41:28;1.40;;;1.30;;
31906;SDS011;18455;50.858;13.662;2024-02-04T09:46:29;2.30;;;1.40;;
31906;SDS011;18455;50.858;13.662;2024-02-04T09:51:29;2.50;;;2.00;;
31906;SDS011;18455;50.858;13.662;2024-02-04T09:56:29;1.40;;;1.30;;
31906;SDS011;18455;50.858;13.662;2024-02-04T10:01:31;1.90;;;1.37;;
31906;SDS011;18455;50.858;13.662;2024-02-04T10:06:31;1.90;;;1.80;;
31906;SDS011;18455;50.858;13.662;2024-02-04T10:11:32;2.63;;;2.40;;
31906;SDS011;18455;50.858;13.662;2024-02-04T10:16:34;2.63;;;2.33;;
31906;SDS011;18455;50.858;13.662;2024-02-04T10:21:35;2.67;;;2.30;;
31906;SDS011;18455;50.858;13.662;2024-02-04T10:26:35;2.03;;;1.93;;
31906;SDS011;18455;50.858;13.662;2024-02-04T10:31:37;2.20;;;2.00;;
31906;SDS011;18455;50.858;13.662;2024-02-04T10:36:37;2.30;;;2.10;;
31906;SDS011;18455;50.858;13.662;2024-02-04T10:41:37;1.80;;;1.70;;
31906;SDS011;18455;50.858;13.662;2024-02-04T10:46:40;2.03;;;1.67;;
31906;SDS011;18455;50.858;13.662;2024-02-04T10:51:41;1.20;;;1.10;;
31906;SDS011;18455;50.858;13.662;2024-02-04T10:56:42;1.20;;;1.10;;
31906;SDS011;18455;50.858;13.662;2024-02-04T11:01:43;1.50;;;1.40;;
31906;SDS011;18455;50.858;13.662;2024-02-04T11:06:43;1.33;;;1.23;;
31906;SDS011;18455;50.858;13.662;2024-02-04T11:11:44;1.37;;;1.30;;
31906;SDS011;18455;50.858;13.662;2024-02-04T11:17:32;2.00;;;1.50;;
31906;SDS011;18455;50.858;13.662;2024-02-04T11:27:28;2.40;;;1.90;;
31906;SDS011;18455;50.858;13.662;2024-02-04T11:32:28;3.40;;;1.70;;
31906;SDS011;18455;50.858;13.662;2024-02-04T11:37:28;1.67;;;1.57;;
31906;SDS011;18455;50.858;13.662;2024-02-04T11:42:32;2.57;;;1.97;;
31906;SDS011;18455;50.858;13.662;2024-02-04T11:47:33;2.80;;;2.60;;
31906;SDS011;18455;50.858;13.662;2024-02-04T11:52:33;2.50;;;1.90;;
31906;SDS011;18455;50.858;13.662;2024-02-04T11:57:33;1.70;;;1.60;;
31906;SDS011;18455;50.858;13.662;2024-02-04T12:02:34;2.30;;;2.10;;
31906;SDS011;18455;50.858;13.662;2024-02-04T12:07:34;1.90;;;1.80;;
31906;SDS011;18455;50.858;13.662;2024-02-04T12:12:34;2.13;;;1.93;;
31906;SDS011;18455;50.858;13.662;2024-02-04T12:17:35;1.73;;;1.63;;
31906;SDS011;18455;50.858;13.662;2024-02-04T12:22:35;2.37;;;1.93;;
31906;SDS011;18455;50.858;13.662;2024-02-04T12:27:36;6.43;;;5.63;;
31906;SDS011;18455;50.858;13.662;2024-02-04T12:32:37;2.27;;;1.90;;
31906;SDS011;18455;50.858;13.662;2024-02-04T12:37:37;2.33;;;1.70;;
31906;SDS011;18455;50.858;13.662;2024-02-04T12:42:37;1.83;;;1.73;;
31906;SDS011;18455;50.858;13.662;2024-02-04T12:47:37;2.10;;;1.90;;
31906;SDS011;18455;50.858;13.662;2024-02-04T12:52:37;1.90;;;1.80;;
31906;SDS011;18455;50.858;13.662;2024-02-04T12:57:39;1.83;;;1.70;;
31906;SDS011;18455;50.858;13.662;2024-02-04T13:02:39;1.60;;;1.50;;
31906;SDS011;18455;50.858;13.662;2024-02-04T13:07:41;1.83;;;1.70;;
31906;SDS011;18455;50.858;13.662;2024-02-04T13:12:41;5.00;;;2.20;;
31906;SDS011;18455;50.858;13.662;2024-02-04T13:17:41;2.90;;;2.30;;
31906;SDS011;18455;50.858;13.662;2024-02-04T13:22:41;2.20;;;1.90;;
31906;SDS011;18455;50.858;13.662;2024-02-04T13:27:41;3.87;;;2.13;;
31906;SDS011;18455;50.858;13.662;2024-02-04T13:32:42;1.97;;;1.87;;
31906;SDS011;18455;50.858;13.662;2024-02-04T13:37:44;3.90;;;3.50;;
31906;SDS011;18455;50.858;13.662;2024-02-04T13:42:48;2.87;;;2.60;;
31906;SDS011;18455;50.858;13.662;2024-02-04T13:47:48;6.17;;;4.53;;
31906;SDS011;18455;50.858;13.662;2024-02-04T13:52:48;1.60;;;1.50;;
31906;SDS011;18455;50.858;13.662;2024-02-04T13:57:48;1.50;;;1.40;;
31906;SDS011;18455;50.858;13.662;2024-02-04T14:02:49;2.63;;;2.00;;
31906;SDS011;18455;50.858;13.662;2024-02-04T14:07:49;1.80;;;1.67;;
31906;SDS011;18455;50.858;13.662;2024-02-04T14:12:49;1.60;;;1.50;;
31906;SDS011;18455;50.858;13.662;2024-02-04T14:17:50;1.80;;;1.60;;
31906;SDS011;18455;50.858;13.662;2024-02-04T14:22:50;1.53;;;1.43;;
31906;SDS011;18455;50.858;13.662;2024-02-04T14:27:50;1.93;;;1.83;;
31906;SDS011;18455;50.858;13.662;2024-02-04T14:32:51;5.37;;;4.23;;
31906;SDS011;18455;50.858;13.662;2024-02-04T14:37:51;5.87;;;4.53;;
31906;SDS011;18455;50.858;13.662;2024-02-04T14:42:52;5.77;;;4.30;;
31906;SDS011;18455;50.858;13.662;2024-02-04T14:53:25;2.63;;;2.00;;
31906;SDS011;18455;50.858;13.662;2024-02-04T14:59:11;2.80;;;2.37;;
31906;SDS011;18455;50.858;13.662;2024-02-04T15:04:11;4.13;;;2.33;;
31906;SDS011;18455;50.858;13.662;2024-02-04T15:09:12;3.03;;;2.57;;
31906;SDS011;18455;50.858;13.662;2024-02-04T15:14:14;3.00;;;2.70;;
31906;SDS011;18455;50.858;13.662;2024-02-04T15:19:16;6.13;;;2.90;;
31906;SDS011;18455;50.858;13.662;2024-02-04T15:24:17;3.93;;;3.60;;
31906;SDS011;18455;50.858;13.662;2024-02-04T15:29:17;5.03;;;4.33;;
31906;SDS011;18455;50.858;13.662;2024-02-04T15:34:18;6.43;;;3.90;;
31906;SDS011;18455;50.858;13.662;2024-02-04T15:39:18;5.27;;;4.77;;
31906;SDS011;18455;50.858;13.662;2024-02-04T15:44:20;5.30;;;3.70;;
31906;SDS011;18455;50.858;13.662;2024-02-04T15:49:22;4.33;;;3.43;;
31906;SDS011;18455;50.858;13.662;2024-02-04T15:54:24;4.93;;;3.90;;
31906;SDS011;18455;50.858;13.662;2024-02-04T15:59:27;4.63;;;3.67;;
31906;SDS011;18455;50.858;13.662;2024-02-04T16:04:27;7.00;;;5.10;;
31906;SDS011;18455;50.858;13.662;2024-02-04T16:09:28;4.40;;;3.60;;
31906;SDS011;18455;50.858;13.662;2024-02-04T16:14:28;8.33;;;5.03;;
31906;SDS011;18455;50.858;13.662;2024-02-04T16:19:31;3.73;;;3.43;;
31906;SDS011;18455;50.858;13.662;2024-02-04T16:24:32;4.13;;;3.43;;
31906;SDS011;18455;50.858;13.662;2024-02-04T16:29:32;3.10;;;2.90;;
31906;SDS011;18455;50.858;13.662;2024-02-04T16:34:32;4.30;;;3.20;;
31906;SDS011;18455;50.858;13.662;2024-02-04T16:39:35;5.37;;;3.80;;
31906;SDS011;18455;50.858;13.662;2024-02-04T16:44:35;4.30;;;3.90;;
31906;SDS011;18455;50.858;13.662;2024-02-04T16:49:35;4.03;;;3.30;;
31906;SDS011;18455;50.858;13.662;2024-02-04T16:54:36;3.37;;;3.07;;
31906;SDS011;18455;50.858;13.662;2024-02-04T16:59:36;2.73;;;2.43;;
31906;SDS011;18455;50.858;13.662;2024-02-04T17:04:36;3.73;;;2.10;;
31906;SDS011;18455;50.858;13.662;2024-02-04T17:09:37;3.10;;;2.80;;
31906;SDS011;18455;50.858;13.662;2024-02-04T17:14:37;4.53;;;2.40;;
31906;SDS011;18455;50.858;13.662;2024-02-04T17:19:50;4.87;;;2.33;;
31906;SDS011;18455;50.858;13.662;2024-02-04T17:24:53;3.07;;;2.70;;
31906;SDS011;18455;50.858;13.662;2024-02-04T17:29:57;3.30;;;2.90;;
31906;SDS011;18455;50.858;13.662;2024-02-04T17:35:01;5.67;;;2.20;;
31906;SDS011;18455;50.858;13.662;2024-02-04T17:40:02;2.63;;;2.43;;
31906;SDS011;18455;50.858;13.662;2024-02-04T17:45:02;4.47;;;3.87;;
31906;SDS011;18455;50.858;13.662;2024-02-04T17:50:06;2.50;;;2.30;;
31906;SDS011;18455;50.858;13.662;2024-02-04T17:55:06;2.33;;;2.13;;
31906;SDS011;18455;50.858;13.662;2024-02-04T18:00:08;2.60;;;2.10;;
31906;SDS011;18455;50.858;13.662;2024-02-04T18:05:10;2.87;;;2.67;;
31906;SDS011;18455;50.858;13.662;2024-02-04T18:10:10;5.70;;;2.40;;
31906;SDS011;18455;50.858;13.662;2024-02-04T18:15:11;2.40;;;2.20;;
31906;SDS011;18455;50.858;13.662;2024-02-04T18:20:11;2.37;;;2.10;;
31906;SDS011;18455;50.858;13.662;2024-02-04T18:25:12;4.30;;;1.20;;
31906;SDS011;18455;50.858;13.662;2024-02-04T18:30:12;1.93;;;1.50;;
31906;SDS011;18455;50.858;13.662;2024-02-04T18:35:16;2.03;;;1.50;;
31906;SDS011;18455;50.858;13.662;2024-02-04T18:40:16;2.17;;;1.50;;
31906;SDS011;18455;50.858;13.662;2024-02-04T18:45:16;2.10;;;2.00;;
31906;SDS011;18455;50.858;13.662;2024-02-04T18:50:17;5.03;;;2.60;;
31906;SDS011;18455;50.858;13.662;2024-02-04T18:55:17;2.10;;;1.70;;
31906;SDS011;18455;50.858;13.662;2024-02-04T19:00:17;2.20;;;2.00;;
31906;SDS011;18455;50.858;13.662;2024-02-04T19:05:17;1.83;;;1.73;;
31906;SDS011;18455;50.858;13.662;2024-02-04T19:10:17;5.30;;;3.80;;
31906;SDS011;18455;50.858;13.662;2024-02-04T19:15:18;1.50;;;1.40;;
31906;SDS011;18455;50.858;13.662;2024-02-04T19:20:18;3.03;;;1.67;;
31906;SDS011;18455;50.858;13.662;2024-02-04T19:25:18;2.63;;;2.23;;
31906;SDS011;18455;50.858;13.662;2024-02-04T19:30:19;2.37;;;2.13;;
31906;SDS011;18455;50.858;13.662;2024-02-04T19:35:21;6.83;;;2.87;;
31906;SDS011;18455;50.858;13.662;2024-02-04T19:40:21;4.87;;;3.53;;
31906;SDS011;18455;50.858;13.662;2024-02-04T19:45:22;4.50;;;3.23;;
31906;SDS011;18455;50.858;13.662;2024-02-04T19:50:22;7.27;;;2.40;;
31906;SDS011;18455;50.858;13.662;2024-02-04T19:55:22;3.97;;;2.80;;
31906;SDS011;18455;50.858;13.662;2024-02-04T20:00:23;6.57;;;2.63;;
31906;SDS011;18455;50.858;13.662;2024-02-04T20:05:23;3.43;;;2.17;;
31906;SDS011;18455;50.858;13.662;2024-02-04T20:10:23;2.10;;;2.00;;
31906;SDS011;18455;50.858;13.662;2024-02-04T20:15:24;1.73;;;1.63;;
31906;SDS011;18455;50.858;13.662;2024-02-04T20:20:28;1.70;;;1.60;;
31906;SDS011;18455;50.858;13.662;2024-02-04T20:25:29;1.50;;;1.40;;
31906;SDS011;18455;50.858;13.662;2024-02-04T20:30:30;2.33;;;2.20;;
31906;SDS011;18455;50.858;13.662;2024-02-04T20:35:30;1.63;;;1.53;;
31906;SDS011;18455;50.858;13.662;2024-02-04T20:40:30;1.67;;;1.57;;
31906;SDS011;18455;50.858;13.662;2024-02-04T20:45:30;1.80;;;1.70;;
31906;SDS011;18455;50.858;13.662;2024-02-04T20:50:31;1.77;;;1.67;;
31906;SDS011;18455;50.858;13.662;2024-02-04T20:55:31;1.03;;;1.03;;
31906;SDS011;18455;50.858;13.662;2024-02-04T21:00:31;1.10;;;1.00;;
31906;SDS011;18455;50.858;13.662;2024-02-04T21:05:32;0.80;;;0.80;;
31906;SDS011;18455;50.858;13.662;2024-02-04T21:10:39;0.93;;;0.93;;
31906;SDS011;18455;50.858;13.662;2024-02-04T21:15:39;1.07;;;0.90;;
31906;SDS011;18455;50.858;13.662;2024-02-04T21:20:39;2.30;;;1.20;;
31906;SDS011;18455;50.858;13.662;2024-02-04T21:25:39;1.10;;;1.00;;
31906;SDS011;18455;50.858;13.662;2024-02-04T21:30:39;1.20;;;1.10;;
31906;SDS011;18455;50.858;13.662;2024-02-04T21:35:39;1.27;;;1.17;;
31906;SDS011;18455;50.858;13.662;2024-02-04T21:40:40;1.03;;;1.03;;
31906;SDS011;18455;50.858;13.662;2024-02-04T21:45:42;2.27;;;1.03;;
31906;SDS011;18455;50.858;13.662;2024-02-04T21:50:42;3.60;;;1.47;;
31906;SDS011;18455;50.858;13.662;2024-02-04T21:55:43;0.80;;;0.80;;
31906;SDS011;18455;50.858;13.662;2024-02-04T22:00:46;1.00;;;0.80;;
31906;SDS011;18455;50.858;13.662;2024-02-04T22:05:46;0.90;;;0.90;;
31906;SDS011;18455;50.858;13.662;2024-02-04T22:10:47;1.13;;;0.90;;
31906;SDS011;18455;50.858;13.662;2024-02-04T22:15:48;0.90;;;0.90;;
31906;SDS011;18455;50.858;13.662;2024-02-04T22:20:48;1.00;;;1.00;;
31906;SDS011;18455;50.858;13.662;2024-02-04T22:25:48;0.90;;;0.90;;
31906;SDS011;18455;50.858;13.662;2024-02-04T22:30:52;0.70;;;0.70;;
31906;SDS011;18455;50.858;13.662;2024-02-04T22:35:53;0.73;;;0.73;;
31906;SDS011;18455;50.858;13.662;2024-02-04T22:40:53;1.17;;;0.80;;
31906;SDS011;18455;50.858;13.662;2024-02-04T22:45:53;0.60;;;0.60;;
31906;SDS011;18455;50.858;13.662;2024-02-04T22:50:53;0.60;;;0.60;;
31906;SDS011;18455;50.858;13.662;2024-02-04T22:55:53;0.67;;;0.60;;
31906;SDS011;18455;50.858;13.662;2024-02-04T23:00:54;0.77;;;0.70;;
31906;SDS011;18455;50.858;13.662;2024-02-04T23:05:54;0.60;;;0.60;;
31906;SDS011;18455;50.858;13.662;2024-02-04T23:10:54;0.60;;;0.60;;
31906;SDS011;18455;50.858;13.662;2024-02-04T23:15:54;0.70;;;0.70;;
31906;SDS011;18455;50.858;13.662;2024-02-04T23:20:57;0.77;;;0.70;;
31906;SDS011;18455;50.858;13.662;2024-02-04T23:25:57;0.70;;;0.70;;
31906;SDS011;18455;50.858;13.662;2024-02-04T23:30:57;0.70;;;0.70;;
31906;SDS011;18455;50.858;13.662;2024-02-04T23:35:58;0.70;;;0.70;;
31906;SDS011;18455;50.858;13.662;2024-02-04T23:40:58;0.63;;;0.63;;
31906;SDS011;18455;50.858;13.662;2024-02-04T23:45:58;0.90;;;0.90;;
31906;SDS011;18455;50.858;13.662;2024-02-04T23:50:58;0.70;;;0.70;;
31906;SDS011;18455;50.858;13.662;2024-02-04T23:55:58;4.10;;;0.80;;
